Time;durP1;ratioP1;P1;durP2;ratioP2;P2;SDS_P1;SDS_P2;PMS_P1;PMS_P2;Temp;Humidity;BMP_temperature;BMP_pressure;BME280_temperature;BME280_humidity;BME280_pressure;Samples;Min_cycle;Max_cycle;Signal;HPM_P1;HPM_P2
2023/12/06 00:01:35;;;;;;;1.60;0.45;;;;;;;15.31;100.00;100752.94;5024667;28;20046;-73
2023/12/06 00:04:06;;;;;;;1.90;0.75;;;;;;;15.29;100.00;100743.34;5022791;28;20057;-74
2023/12/06 00:06:37;;;;;;;0.60;0.47;;;;;;;15.39;100.00;100748.66;5025223;28;20045;-73
2023/12/06 00:09:06;;;;;;;1.42;0.75;;;;;;;15.41;100.00;100752.16;5024523;28;20114;-73
2023/12/06 00:11:36;;;;;;;1.38;0.63;;;;;;;15.42;100.00;100754.78;5025801;28;20553;-72
2023/12/06 00:14:05;;;;;;;0.95;0.57;;;;;;;15.44;100.00;100752.22;5026786;28;20073;-73
2023/12/06 00:16:34;;;;;;;2.50;0.63;;;;;;;15.45;100.00;100746.13;5028821;28;20140;-74
2023/12/06 00:19:03;;;;;;;1.98;0.77;;;;;;;15.48;100.00;100735.72;5026212;28;20535;-73
2023/12/06 00:21:32;;;;;;;0.77;0.63;;;;;;;15.46;100.00;100727.91;5027157;28;20132;-73
2023/12/06 00:24:03;;;;;;;2.45;0.70;;;;;;;15.45;100.00;100730.47;5025706;28;20045;-74
2023/12/06 00:26:39;;;;;;;1.80;0.50;;;;;;;15.36;100.00;100720.81;5028015;28;20045;-72
2023/12/06 00:29:08;;;;;;;1.08;0.90;;;;;;;15.37;100.00;100713.88;5030650;28;20068;-72
2023/12/06 00:31:37;;;;;;;3.67;1.48;;;;;;;15.37;100.00;100711.25;5030505;28;20041;-71
2023/12/06 00:34:10;;;;;;;2.03;1.60;;;;;;;15.33;100.00;100712.13;5030366;28;20050;-73
2023/12/06 00:36:41;;;;;;;1.45;0.70;;;;;;;15.28;100.00;100704.25;5024896;28;20093;-72
2023/12/06 00:39:10;;;;;;;2.25;1.42;;;;;;;15.27;100.00;100703.38;5034242;28;20085;-72
2023/12/06 00:41:41;;;;;;;1.33;0.77;;;;;;;15.25;100.00;100686.81;5031471;28;20042;-72
2023/12/06 00:44:10;;;;;;;1.23;0.80;;;;;;;15.25;100.00;100676.41;5032005;28;20056;-74
2023/12/06 00:46:41;;;;;;;2.78;0.98;;;;;;;15.28;100.00;100671.25;5027822;28;20132;-72
2023/12/06 00:49:10;;;;;;;1.65;1.30;;;;;;;15.29;100.00;100672.09;5028169;28;20057;-73
2023/12/06 00:51:41;;;;;;;2.42;1.10;;;;;;;15.28;100.00;100676.44;5032474;28;20452;-72
2023/12/06 00:54:11;;;;;;;1.25;0.63;;;;;;;15.25;100.00;100676.41;5031069;28;20045;-73
2023/12/06 00:56:42;;;;;;;2.17;0.80;;;;;;;15.23;100.00;100678.16;5029701;28;20187;-71
2023/12/06 00:59:11;;;;;;;2.00;0.70;;;;;;;15.24;100.00;100674.66;5026979;28;20046;-72
2023/12/06 01:01:40;;;;;;;1.15;0.70;;;;;;;15.28;100.00;100666.03;5027325;28;20049;-71
2023/12/06 01:04:11;;;;;;;2.42;1.05;;;;;;;15.30;100.00;100663.41;5024218;28;20048;-71
2023/12/06 01:06:41;;;;;;;1.88;0.90;;;;;;;15.33;100.00;100663.47;5028441;28;20057;-71
2023/12/06 01:09:10;;;;;;;1.42;0.82;;;;;;;15.35;100.00;100648.72;5026922;28;20065;-72
2023/12/06 01:11:44;;;;;;;1.90;0.90;;;;;;;15.35;100.00;100642.63;5028936;28;20132;-73
2023/12/06 01:14:14;;;;;;;3.17;0.80;;;;;;;15.36;100.00;100660.00;5028755;28;20052;-72
2023/12/06 01:16:44;;;;;;;2.65;0.80;;;;;;;15.37;100.00;100667.84;5030425;28;20053;-72
2023/12/06 01:19:15;;;;;;;2.45;0.90;;;;;;;15.38;100.00;100664.38;5025932;28;20099;-72
2023/12/06 01:21:44;;;;;;;3.63;0.90;;;;;;;15.36;100.00;100653.03;5028251;28;20068;-72
2023/12/06 01:24:13;;;;;;;1.58;0.98;;;;;;;15.35;100.00;100656.53;5028045;28;20153;-72
2023/12/06 01:26:44;;;;;;;1.88;1.25;;;;;;;15.36;100.00;100666.06;5027702;28;20053;-72
2023/12/06 01:29:14;;;;;;;2.00;0.90;;;;;;;15.36;100.00;100658.25;5027220;28;20061;-73
2023/12/06 01:31:44;;;;;;;1.67;1.00;;;;;;;15.36;100.00;100662.59;5029161;28;20049;-72
2023/12/06 01:34:14;;;;;;;4.50;1.20;;;;;;;15.33;100.00;100649.56;5025847;28;20061;-71
2023/12/06 01:36:45;;;;;;;2.35;1.13;;;;;;;15.33;100.00;100641.75;5029895;28;20049;-72
2023/12/06 01:39:22;;;;;;;1.50;1.02;;;;;;;15.32;100.00;100640.84;5025048;28;20080;-72
2023/12/06 01:41:54;;;;;;;1.98;1.38;;;;;;;15.33;100.00;100645.22;5025234;28;20554;-73
2023/12/06 01:44:24;;;;;;;2.85;1.35;;;;;;;15.29;100.00;100631.25;5022898;28;20329;-73
2023/12/06 01:46:54;;;;;;;2.20;0.95;;;;;;;15.28;100.00;100641.69;5026952;28;20513;-72
2023/12/06 01:49:26;;;;;;;3.17;1.10;;;;;;;15.24;100.00;100643.41;5026860;28;20048;-72
2023/12/06 01:51:56;;;;;;;2.78;1.05;;;;;;;15.21;100.00;100640.78;5029360;28;20053;-73
2023/12/06 01:54:28;;;;;;;2.72;1.10;;;;;;;15.21;100.00;100651.19;5025997;28;20679;-70
2023/12/06 01:57:00;;;;;;;7.75;1.38;;;;;;;15.22;100.00;100649.47;5024925;28;20088;-73
2023/12/06 01:59:33;;;;;;;4.63;1.13;;;;;;;15.17;100.00;100649.41;5026540;28;20046;-73
2023/12/06 02:02:05;;;;;;;6.68;1.40;;;;;;;15.14;100.00;100646.78;5025140;28;20130;-71
2023/12/06 02:04:38;;;;;;;1.85;0.90;;;;;;;15.12;100.00;100645.00;5026764;28;20064;-72
2023/12/06 02:07:08;;;;;;;5.25;1.50;;;;;;;15.15;100.00;100656.34;5029005;28;20541;-72
2023/12/06 02:09:39;;;;;;;3.55;1.27;;;;;;;15.14;100.00;100659.81;5028414;28;20045;-72
2023/12/06 02:12:12;;;;;;;2.17;1.10;;;;;;;15.17;100.00;100662.44;5025417;28;20057;-72
2023/12/06 02:14:42;;;;;;;7.45;1.10;;;;;;;15.15;100.00;100658.94;5026126;28;20491;-72
2023/12/06 02:17:14;;;;;;;3.65;1.27;;;;;;;15.11;100.00;100661.50;5021915;28;20054;-72
2023/12/06 02:19:45;;;;;;;2.33;1.00;;;;;;;15.11;100.00;100666.72;5022596;28;20056;-74
2023/12/06 02:22:16;;;;;;;4.78;1.08;;;;;;;15.10;100.00;100676.28;5025623;28;20072;-72
2023/12/06 02:24:48;;;;;;;1.65;0.90;;;;;;;15.11;100.00;100687.56;5022739;28;20053;-72
2023/12/06 02:27:19;;;;;;;2.47;1.08;;;;;;;15.12;100.00;100685.00;5027481;28;20083;-73
2023/12/06 02:29:49;;;;;;;1.77;1.13;;;;;;;15.16;100.00;100683.28;5028113;28;20048;-73
2023/12/06 02:32:18;;;;;;;1.48;0.93;;;;;;;15.20;100.00;100691.13;5024658;28;20137;-73
2023/12/06 02:34:49;;;;;;;2.58;1.20;;;;;;;15.21;100.00;100705.94;5025860;28;20053;-71
2023/12/06 02:37:23;;;;;;;1.90;1.23;;;;;;;15.20;100.00;100687.66;5026106;28;20045;-73
2023/12/06 02:39:56;;;;;;;1.85;1.20;;;;;;;15.15;100.00;100685.00;5021824;28;20046;-73
2023/12/06 02:42:26;;;;;;;;;;;;;;;15.12;100.00;100685.00;5027442;28;20045;-72
2023/12/06 02:44:57;;;;;;;3.83;1.30;;;;;;;15.10;100.00;100680.63;5026592;28;19944;-70
2023/12/06 02:47:28;;;;;;;1.95;1.00;;;;;;;15.11;100.00;100685.84;5028378;28;20136;-71
2023/12/06 02:49:59;;;;;;;5.05;1.35;;;;;;;15.11;100.00;100675.41;5026560;28;20522;-71
2023/12/06 02:52:36;;;;;;;1.98;0.95;;;;;;;15.10;100.00;100683.22;5027679;28;20060;-70
2023/12/06 02:55:08;;;;;;;2.42;1.30;;;;;;;15.07;100.00;100686.66;5027149;28;20056;-71
2023/12/06 02:57:52;;;;;;;1.30;0.80;;;;;;;15.06;100.00;100677.09;5027149;28;20050;-70
2023/12/06 03:00:21;;;;;;;1.65;0.90;;;;;;;15.06;100.00;100679.72;5027071;28;20053;-73
2023/12/06 03:02:50;;;;;;;1.55;0.82;;;;;;;15.07;100.00;100668.41;5009289;28;20131;-73
2023/12/06 03:05:20;;;;;;;1.50;1.08;;;;;;;15.08;100.00;100670.19;5024753;28;20111;-73
2023/12/06 03:07:49;;;;;;;1.27;0.75;;;;;;;15.07;100.00;100676.22;5023939;28;20084;-73
2023/12/06 03:10:34;;;;;;;4.30;1.02;;;;;;;15.06;100.00;100679.72;5025707;28;20119;-73
2023/12/06 03:13:05;;;;;;;3.38;1.02;;;;;;;15.09;100.00;100679.72;5024975;28;20107;-74
2023/12/06 03:15:34;;;;;;;1.40;0.98;;;;;;;15.11;100.00;100683.22;5022064;28;20046;-73
2023/12/06 03:18:03;;;;;;;1.10;0.80;;;;;;;15.11;100.00;100672.81;5025002;28;20056;-73
2023/12/06 03:20:36;;;;;;;1.48;0.70;;;;;;;15.11;100.00;100685.84;5025365;28;20099;-74
2023/12/06 03:23:05;;;;;;;4.28;0.90;;;;;;;15.12;100.00;100684.09;5026605;28;20136;-73
2023/12/06 03:25:34;;;;;;;1.73;1.00;;;;;;;15.08;100.00;100678.88;5029027;28;20180;-73
2023/12/06 03:28:05;;;;;;;5.15;0.93;;;;;;;15.06;100.00;100679.72;5026715;28;20083;-75
2023/12/06 03:30:34;;;;;;;4.13;1.40;;;;;;;15.08;100.00;100681.47;5025179;28;20049;-74
2023/12/06 03:33:04;;;;;;;2.33;1.10;;;;;;;15.11;100.00;100682.38;5026601;28;20053;-73
2023/12/06 03:35:34;;;;;;;3.97;1.27;;;;;;;15.11;100.00;100685.84;5024930;28;20045;-72
2023/12/06 03:38:03;;;;;;;1.52;1.00;;;;;;;15.08;100.00;100688.41;5022917;28;20136;-72
2023/12/06 03:40:35;;;;;;;2.20;0.55;;;;;;;15.08;100.00;100688.41;5024947;28;20342;-73
2023/12/06 03:43:06;;;;;;;1.60;1.10;;;;;;;15.07;100.00;100687.56;5026448;28;20134;-73
2023/12/06 03:45:35;;;;;;;1.13;0.80;;;;;;;15.07;100.00;100697.06;5023262;28;20056;-73
2023/12/06 03:48:05;;;;;;;2.78;0.80;;;;;;;15.11;100.00;100692.78;5026001;28;20064;-73
2023/12/06 03:50:37;;;;;;;0.77;0.60;;;;;;;15.14;100.00;100692.81;5022603;28;20087;-74
2023/12/06 03:53:06;;;;;;;1.58;0.77;;;;;;;15.16;100.00;100694.56;5025098;28;20104;-72
2023/12/06 03:55:35;;;;;;;2.08;0.60;;;;;;;15.16;100.00;100699.78;5026854;28;20117;-72
2023/12/06 03:58:06;;;;;;;1.40;0.80;;;;;;;15.19;100.00;100702.44;5021495;28;20053;-73
2023/12/06 04:00:34;;;;;;;1.70;1.00;;;;;;;15.18;100.00;100698.06;5024677;28;20055;-71
2023/12/06 04:03:08;;;;;;;2.03;0.60;;;;;;;15.18;100.00;100700.66;5023833;28;20058;-72
2023/12/06 04:05:37;;;;;;;1.35;0.85;;;;;;;15.16;100.00;100691.97;5024199;28;20594;-73
2023/12/06 04:08:06;;;;;;;2.90;1.08;;;;;;;15.12;100.00;100685.00;5026750;28;20053;-74
2023/12/06 04:10:35;;;;;;;1.20;0.60;;;;;;;15.07;100.00;100676.22;5028474;28;20063;-73
2023/12/06 04:13:08;;;;;;;0.98;0.85;;;;;;;15.06;100.00;100679.72;5023652;28;20057;-74
2023/12/06 04:15:37;;;;;;;;;;;;;;;15.06;100.00;100674.50;5026462;28;20384;-71
2023/12/06 04:18:06;;;;;;;1.42;0.60;;;;;;;15.04;100.00;100671.00;5027868;28;19929;-73
2023/12/06 04:20:35;;;;;;;0.47;0.35;;;;;;;15.03;100.00;100670.13;5030221;28;20149;-73
2023/12/06 04:23:04;;;;;;;1.45;0.50;;;;;;;15.02;100.00;100667.50;5024045;28;20120;-72
2023/12/06 04:25:35;;;;;;;0.40;0.30;;;;;;;14.99;100.00;100662.28;5022832;28;20070;-72
2023/12/06 04:28:05;;;;;;;0.55;0.40;;;;;;;14.96;100.00;100667.47;5023967;28;20045;-72
2023/12/06 04:30:37;;;;;;;0.82;0.30;;;;;;;14.95;100.00;100676.13;5022598;28;20055;-72
2023/12/06 04:33:06;;;;;;;0.67;0.57;;;;;;;14.93;100.00;100677.84;5025038;28;20164;-73
2023/12/06 04:35:34;;;;;;;4.15;0.63;;;;;;;14.93;100.00;100672.63;5023538;28;20338;-71
2023/12/06 04:38:03;;;;;;;1.05;0.52;;;;;;;14.91;100.00;100674.34;5024354;28;20096;-72
2023/12/06 04:40:35;;;;;;;3.05;0.60;;;;;;;14.84;100.00;100668.19;5022912;28;20111;-72
2023/12/06 04:43:06;;;;;;;2.63;0.60;;;;;;;14.83;100.00;100669.91;5023884;28;20064;-71
2023/12/06 04:45:38;;;;;;;1.55;0.60;;;;;;;14.85;100.00;100676.03;5023411;28;20738;-73
2023/12/06 04:48:06;;;;;;;;;;;;;;;14.81;100.00;100668.16;5022473;28;20084;-71
2023/12/06 04:50:36;;;;;;;2.28;0.55;;;;;;;14.83;100.00;100672.53;5022996;28;20541;-70
2023/12/06 04:53:05;;;;;;;1.60;0.50;;;;;;;14.85;100.00;100669.94;5024453;28;20057;-71
2023/12/06 04:55:37;;;;;;;3.55;0.90;;;;;;;14.86;100.00;100677.75;5024710;28;20045;-74
2023/12/06 04:58:09;;;;;;;2.25;0.75;;;;;;;14.87;100.00;100678.66;5023620;28;20077;-72
2023/12/06 05:00:38;;;;;;;5.45;0.68;;;;;;;14.91;100.00;100679.53;5024324;28;20077;-73
2023/12/06 05:03:09;;;;;;;2.47;0.50;;;;;;;14.92;100.00;100678.72;5021617;28;20045;-71
2023/12/06 05:05:38;;;;;;;1.00;0.60;;;;;;;14.93;100.00;100683.91;5021455;28;20049;-71
2023/12/06 05:08:07;;;;;;;0.95;0.52;;;;;;;14.91;100.00;100679.53;5020957;28;20136;-71
2023/12/06 05:10:36;;;;;;;2.35;0.70;;;;;;;14.88;100.00;100683.00;5023096;28;20143;-73
2023/12/06 05:13:07;;;;;;;1.73;0.63;;;;;;;14.84;100.00;100682.09;5025196;28;20052;-70
2023/12/06 05:15:37;;;;;;;2.08;0.50;;;;;;;14.85;100.00;100683.84;5031134;28;20104;-74
2023/12/06 05:18:13;;;;;;;1.75;0.47;;;;;;;14.80;100.00;100672.50;5030713;28;20145;-71
2023/12/06 05:20:41;;;;;;;0.88;0.60;;;;;;;14.81;100.00;100689.88;5028116;28;20042;-73
2023/12/06 05:23:10;;;;;;;1.02;0.60;;;;;;;14.79;100.00;100682.91;5027463;28;20508;-73
2023/12/06 05:25:39;;;;;;;0.80;0.47;;;;;;;14.80;100.00;100688.13;5026006;28;20049;-73
2023/12/06 05:28:10;;;;;;;2.78;0.52;;;;;;;14.75;100.00;100692.44;5026845;28;20057;-73
2023/12/06 05:30:39;;;;;;;1.73;0.68;;;;;;;14.77;100.00;100695.03;5023483;28;20072;-72
2023/12/06 05:33:09;;;;;;;0.93;0.40;;;;;;;14.74;100.00;100693.25;5026142;28;20096;-75
2023/12/06 05:35:37;;;;;;;0.93;0.50;;;;;;;14.72;100.00;100697.56;5027254;28;20077;-73
2023/12/06 05:38:06;;;;;;;0.55;0.40;;;;;;;14.75;100.00;100699.34;5024610;28;20164;-73
2023/12/06 05:40:35;;;;;;;0.70;0.50;;;;;;;14.72;100.00;100705.38;5027731;28;20137;-72
2023/12/06 05:43:04;;;;;;;0.65;0.40;;;;;;;14.75;100.00;100699.34;5025780;28;20057;-72
2023/12/06 05:45:34;;;;;;;1.15;0.50;;;;;;;14.76;100.00;100701.97;5025510;28;20049;-73
2023/12/06 05:48:04;;;;;;;0.75;0.60;;;;;;;14.78;100.00;100695.06;5027155;28;20071;-72
2023/12/06 05:50:33;;;;;;;0.77;0.50;;;;;;;14.80;100.00;100708.97;5021939;28;20056;-72
2023/12/06 05:53:02;;;;;;;1.23;0.60;;;;;;;14.76;100.00;100704.56;5025760;28;20064;-72
2023/12/06 05:55:35;;;;;;;1.50;0.70;;;;;;;14.74;100.00;100695.88;5027622;28;20080;-72
2023/12/06 05:58:05;;;;;;;1.00;0.57;;;;;;;14.78;100.00;100689.84;5025813;28;20151;-72
2023/12/06 06:00:35;;;;;;;0.90;0.65;;;;;;;14.71;100.00;100697.59;5027648;28;20573;-70
2023/12/06 06:03:04;;;;;;;0.82;0.77;;;;;;;14.68;100.00;100687.97;5027937;28;20049;-70
2023/12/06 06:05:33;;;;;;;1.75;0.88;;;;;;;14.68;100.00;100687.09;5027116;28;20764;-71
2023/12/06 06:08:02;;;;;;;2.22;0.70;;;;;;;14.70;100.00;100681.06;5027491;28;20045;-71
2023/12/06 06:10:32;;;;;;;1.02;0.80;;;;;;;14.71;100.00;100674.13;5031524;28;20053;-71
2023/12/06 06:13:01;;;;;;;0.68;0.47;;;;;;;14.70;100.00;100668.03;5028078;28;20050;-71
2023/12/06 06:15:30;;;;;;;0.93;0.60;;;;;;;14.74;100.00;100672.44;5025014;28;20053;-71
2023/12/06 06:18:00;;;;;;;1.05;0.73;;;;;;;14.76;100.00;100659.44;5025887;28;20124;-71
2023/12/06 06:20:31;;;;;;;1.65;1.00;;;;;;;14.78;100.00;100662.94;5024982;28;20064;-70
2023/12/06 06:23:00;;;;;;;1.05;0.75;;;;;;;14.76;100.00;100662.91;5027726;28;20141;-72
2023/12/06 06:25:28;;;;;;;1.55;0.77;;;;;;;14.78;100.00;100663.78;5021566;28;20052;-72
2023/12/06 06:27:57;;;;;;;1.48;1.20;;;;;;;14.72;100.00;100657.66;5026825;28;20053;-71
2023/12/06 06:30:25;;;;;;;0.93;0.63;;;;;;;14.71;100.00;100662.00;5025298;28;20041;-72
2023/12/06 06:32:54;;;;;;;1.88;0.98;;;;;;;14.71;100.00;100661.13;5024744;28;20057;-70
2023/12/06 06:35:24;;;;;;;1.38;1.17;;;;;;;14.73;100.00;100662.88;5027093;28;20483;-70
2023/12/06 06:37:53;;;;;;;1.20;0.98;;;;;;;14.72;100.00;100658.50;5027521;28;20050;-70
2023/12/06 06:40:22;;;;;;;1.25;0.93;;;;;;;14.69;100.00;100668.91;5027968;28;20056;-70
2023/12/06 06:42:51;;;;;;;2.55;1.20;;;;;;;14.71;100.00;100667.19;5023863;28;20581;-71
2023/12/06 06:45:20;;;;;;;1.63;1.00;;;;;;;14.72;100.00;100660.25;5027965;28;20060;-73
2023/12/06 06:47:49;;;;;;;1.27;1.10;;;;;;;14.69;100.00;100666.31;5029814;28;20060;-73
2023/12/06 06:50:18;;;;;;;1.73;1.00;;;;;;;14.69;100.00;100658.50;5028027;28;20071;-73
2023/12/06 06:52:48;;;;;;;1.70;1.10;;;;;;;14.58;100.00;100654.88;5024913;28;20103;-73
2023/12/06 06:55:17;;;;;;;2.15;1.10;;;;;;;14.58;100.00;100665.31;5024406;28;20076;-72
2023/12/06 06:57:45;;;;;;;2.40;1.50;;;;;;;14.53;100.00;100660.00;5026324;28;20079;-72
2023/12/06 07:00:15;;;;;;;4.03;1.50;;;;;;;14.53;100.00;100665.22;5026164;28;20631;-72
2023/12/06 07:02:43;;;;;;;2.47;1.30;;;;;;;14.46;100.00;100661.66;5026269;28;20076;-72
2023/12/06 07:05:13;;;;;;;3.25;1.27;;;;;;;14.46;100.00;100650.38;5027270;28;20046;-73
2023/12/06 07:07:50;;;;;;;2.80;1.10;;;;;;;14.42;100.00;100653.78;5027716;28;20061;-72
2023/12/06 07:10:18;;;;;;;2.13;1.00;;;;;;;14.39;100.00;100662.44;5027779;28;20054;-72
2023/12/06 07:12:47;;;;;;;2.80;1.33;;;;;;;14.42;100.00;100659.88;5024164;28;20161;-72
2023/12/06 07:15:16;;;;;;;2.05;1.30;;;;;;;14.41;100.00;100659.88;5023876;28;20330;-72
2023/12/06 07:17:45;;;;;;;2.63;1.50;;;;;;;14.36;100.00;100659.81;5025027;28;20567;-73
2023/12/06 07:20:17;;;;;;;5.50;2.08;;;;;;;14.34;100.00;100664.13;5022305;28;20050;-73
2023/12/06 07:22:45;;;;;;;2.40;1.30;;;;;;;14.32;100.00;100658.03;5026178;28;20046;-73
2023/12/06 07:25:16;;;;;;;3.47;1.20;;;;;;;14.25;100.00;100657.06;5026395;28;20322;-72
2023/12/06 07:27:47;;;;;;;1.77;1.10;;;;;;;14.29;100.00;100655.34;5026869;28;20053;-73
2023/12/06 07:30:17;;;;;;;1.75;1.10;;;;;;;14.26;100.00;100660.53;5026312;28;20502;-73
2023/12/06 07:32:46;;;;;;;1.73;1.25;;;;;;;14.22;100.00;100658.75;5025666;28;20085;-73
2023/12/06 07:35:15;;;;;;;2.30;1.30;;;;;;;14.23;100.00;100658.78;5025196;28;20495;-72
2023/12/06 07:37:48;;;;;;;3.00;1.30;;;;;;;14.26;100.00;100652.72;5022961;28;20494;-72
2023/12/06 07:40:19;;;;;;;2.95;1.52;;;;;;;14.23;100.00;100647.50;5025290;28;20041;-73
2023/12/06 07:42:48;;;;;;;3.92;1.55;;;;;;;14.19;100.00;100643.09;5025852;28;20052;-73
2023/12/06 07:45:19;;;;;;;1.80;1.27;;;;;;;14.20;100.00;100643.13;5025958;28;20064;-73
2023/12/06 07:47:50;;;;;;;3.33;1.33;;;;;;;14.17;100.00;100647.41;5022169;28;20057;-72
2023/12/06 07:50:20;;;;;;;1.73;1.35;;;;;;;14.21;100.00;100650.06;5024291;28;20056;-72
2023/12/06 07:52:52;;;;;;;2.00;1.40;;;;;;;14.09;100.00;100630.81;5024523;28;20445;-73
2023/12/06 07:55:22;;;;;;;5.93;2.33;;;;;;;14.16;100.00;100640.47;5024837;28;20057;-73
2023/12/06 07:57:51;;;;;;;1.83;1.20;;;;;;;14.14;100.00;100621.34;5022021;28;20068;-73
2023/12/06 08:00:22;;;;;;;6.30;2.00;;;;;;;14.13;100.00;100624.78;5023201;28;20038;-71
2023/12/06 08:02:51;;;;;;;2.40;1.38;;;;;;;14.09;100.00;100613.50;5024570;28;20064;-72
2023/12/06 08:05:20;;;;;;;3.72;1.60;;;;;;;14.09;100.00;100615.19;5024130;28;20111;-73
2023/12/06 08:07:51;;;;;;;2.40;1.65;;;;;;;14.10;100.00;100624.78;5026548;28;20061;-72
2023/12/06 08:10:31;;;;;;;2.03;1.58;;;;;;;14.08;100.00;100627.34;5024123;28;20135;-72
2023/12/06 08:13:07;;;;;;;4.10;1.38;;;;;;;14.00;100.00;100629.84;5023912;28;20049;-73
2023/12/06 08:15:36;;;;;;;2.05;1.58;;;;;;;13.94;100.00;100621.94;5021945;28;20076;-72
2023/12/06 08:18:06;;;;;;;2.47;1.98;;;;;;;13.89;100.00;100610.63;5023276;28;20147;-72
2023/12/06 08:20:35;;;;;;;2.53;1.65;;;;;;;13.86;100.00;100608.00;5021245;28;20079;-73
2023/12/06 08:23:05;;;;;;;3.63;1.60;;;;;;;13.91;100.00;100600.25;5025263;28;20096;-73
2023/12/06 08:25:39;;;;;;;1.92;1.40;;;;;;;13.92;100.00;100607.19;5024459;28;20105;-72
2023/12/06 08:28:08;;;;;;;3.55;1.30;;;;;;;13.87;100.00;100603.66;5024830;28;20060;-72
2023/12/06 08:30:36;;;;;;;2.95;1.60;;;;;;;13.83;100.00;100605.31;5025541;28;20647;-72
2023/12/06 08:33:05;;;;;;;1.70;1.20;;;;;;;13.84;100.00;100607.09;5025011;28;20513;-72
2023/12/06 08:35:39;;;;;;;2.00;1.33;;;;;;;13.84;100.00;100599.28;5025174;28;20109;-71
2023/12/06 08:38:08;;;;;;;4.78;1.73;;;;;;;13.86;100.00;100613.19;5024550;28;20049;-71
2023/12/06 08:40:38;;;;;;;2.33;1.55;;;;;;;13.84;100.00;100612.28;5025196;28;20056;-72
2023/12/06 08:43:06;;;;;;;1.52;1.00;;;;;;;13.82;100.00;100608.78;5023765;28;20072;-72
2023/12/06 08:45:35;;;;;;;3.90;1.10;;;;;;;13.80;100.00;100594.88;5022788;28;20053;-72
2023/12/06 08:48:04;;;;;;;4.60;1.20;;;;;;;13.78;100.00;100581.84;5027459;28;20049;-72
2023/12/06 08:50:33;;;;;;;2.15;1.27;;;;;;;13.72;100.00;100596.50;5028586;28;20081;-72
2023/12/06 08:53:02;;;;;;;1.48;0.90;;;;;;;13.67;100.00;100582.56;5026560;28;20053;-72
2023/12/06 08:55:33;;;;;;;4.75;1.20;;;;;;;13.61;100.00;100592.03;5029628;28;20076;-74
2023/12/06 08:58:04;;;;;;;2.22;1.02;;;;;;;13.54;100.00;100577.19;5031570;28;20076;-72
2023/12/06 09:00:33;;;;;;;2.95;1.20;;;;;;;13.61;100.00;100592.03;5030559;28;20103;-73
2023/12/06 09:03:02;;;;;;;3.67;0.90;;;;;;;13.65;100.00;100594.66;5028090;28;20083;-71
2023/12/06 09:05:34;;;;;;;1.20;0.82;;;;;;;13.62;100.00;100585.97;5027620;28;20064;-72
2023/12/06 09:08:03;;;;;;;0.80;0.77;;;;;;;13.65;100.00;100589.47;5029762;28;20057;-71
2023/12/06 09:10:34;;;;;;;2.03;0.80;;;;;;;13.68;100.00;100584.34;5030845;28;20057;-73
2023/12/06 09:13:05;;;;;;;4.40;1.30;;;;;;;13.73;100.00;100580.94;5027793;28;20478;-73
2023/12/06 09:15:33;;;;;;;1.40;0.90;;;;;;;13.75;100.00;100576.63;5027220;28;20551;-72
2023/12/06 09:18:02;;;;;;;2.20;1.40;;;;;;;13.76;100.00;100577.50;5024360;28;20694;-73
2023/12/06 09:20:33;;;;;;;1.20;0.60;;;;;;;13.73;100.00;100572.25;5027014;28;20242;-72
2023/12/06 09:23:02;;;;;;;2.10;0.65;;;;;;;13.76;100.00;100567.09;5026642;28;20088;-73
2023/12/06 09:25:31;;;;;;;3.70;0.90;;;;;;;13.77;100.00;100571.44;5027335;28;20052;-72
2023/12/06 09:28:00;;;;;;;1.25;0.90;;;;;;;13.76;100.00;100561.88;5029076;28;20061;-73
2023/12/06 09:30:33;;;;;;;1.92;1.02;;;;;;;13.79;100.00;100569.75;5028720;28;20053;-74
2023/12/06 09:33:02;;;;;;;2.17;0.80;;;;;;;13.76;100.00;100564.50;5027529;28;20057;-72
2023/12/06 09:35:33;;;;;;;1.48;1.00;;;;;;;13.75;100.00;100554.94;5027959;28;20056;-72
2023/12/06 09:38:02;;;;;;;2.07;1.00;;;;;;;13.80;100.00;100548.06;5027127;28;20061;-73
2023/12/06 09:40:33;;;;;;;3.35;1.08;;;;;;;13.84;100.00;100557.69;5026819;28;20546;-73
2023/12/06 09:43:04;;;;;;;4.22;1.02;;;;;;;13.86;100.00;100550.78;5026769;28;20168;-73
2023/12/06 09:45:38;;;;;;;2.38;0.95;;;;;;;13.91;100.00;100540.44;5027999;28;20053;-72
2023/12/06 09:48:07;;;;;;;4.43;0.93;;;;;;;13.90;100.00;100542.13;5026736;28;20049;-73
2023/12/06 09:50:36;;;;;;;1.33;0.90;;;;;;;13.85;100.00;100524.72;5027513;28;20432;-72
2023/12/06 09:53:05;;;;;;;1.05;0.70;;;;;;;13.81;100.00;100529.00;5031020;28;20049;-72
2023/12/06 09:55:37;;;;;;;1.30;1.20;;;;;;;13.79;100.00;100530.75;5028108;28;20041;-73
2023/12/06 09:58:06;;;;;;;1.95;0.93;;;;;;;13.78;100.00;100528.97;5027932;28;20049;-73
2023/12/06 10:00:48;;;;;;;1.27;0.88;;;;;;;13.74;100.00;100528.09;5025906;28;20041;-72
2023/12/06 10:03:17;;;;;;;1.08;0.75;;;;;;;13.74;100.00;100532.38;5027037;28;20046;-73
2023/12/06 10:06:03;;;;;;;0.73;0.68;;;;;;;13.79;100.00;100535.94;5026705;28;20041;-73
2023/12/06 10:08:33;;;;;;;0.47;0.32;;;;;;;13.74;100.00;100522.00;5025471;28;20107;-73
2023/12/06 10:11:12;;;;;;;0.80;0.52;;;;;;;13.76;100.00;100528.09;5026085;28;20131;-73
2023/12/06 10:13:48;;;;;;;0.80;0.40;;;;;;;13.78;100.00;100523.78;5006291;28;20629;-72
2023/12/06 10:16:19;;;;;;;2.28;0.57;;;;;;;13.77;100.00;100522.91;5007391;28;20391;-73
2023/12/06 10:18:50;;;;;;;2.63;0.98;;;;;;;13.76;100.00;100520.28;5002772;28;20050;-72
2023/12/06 10:21:20;;;;;;;3.67;1.30;;;;;;;13.77;100.00;100511.66;5006760;28;20077;-73
2023/12/06 10:24:00;;;;;;;4.85;1.45;;;;;;;13.78;100.00;100511.66;5007029;28;20060;-73
2023/12/06 10:26:30;;;;;;;1.65;0.50;;;;;;;13.81;100.00;100514.31;5006740;28;20196;-73
2023/12/06 10:29:01;;;;;;;1.50;0.65;;;;;;;13.88;100.00;100516.97;5005013;28;20097;-71
2023/12/06 10:31:42;;;;;;;5.43;0.80;;;;;;;13.90;100.00;100512.66;5003255;28;20488;-73
2023/12/06 10:34:17;;;;;;;2.47;0.88;;;;;;;13.89;100.00;100516.13;5002717;28;20054;-73
2023/12/06 10:36:46;;;;;;;2.95;0.60;;;;;;;13.81;100.00;100516.91;5005834;28;20054;-72
2023/12/06 10:39:17;;;;;;;3.50;0.50;;;;;;;13.80;100.00;100511.66;5009180;28;20083;-74
2023/12/06 10:41:50;;;;;;;0.82;0.45;;;;;;;13.76;100.00;100499.47;5003409;28;20050;-72
2023/12/06 10:44:22;;;;;;;0.82;0.40;;;;;;;13.73;100.00;100500.31;5005766;28;20053;-73
2023/12/06 10:46:55;;;;;;;1.00;0.50;;;;;;;13.71;100.00;100495.97;5006811;28;20042;-72
2023/12/06 10:49:24;;;;;;;0.20;0.20;;;;;;;13.67;100.00;100509.75;5006297;28;20459;-73
2023/12/06 10:51:54;;;;;;;0.82;0.50;;;;;;;13.50;100.00;100499.16;5003490;28;20050;-73
2023/12/06 10:54:29;;;;;;;0.60;0.30;;;;;;;13.58;100.00;100521.81;5006223;28;20061;-73
2023/12/06 10:56:58;;;;;;;0.40;0.40;;;;;;;13.56;100.00;100533.00;5004853;28;20081;-74
2023/12/06 10:59:29;;;;;;;0.90;0.50;;;;;;;13.51;100.00;100535.53;5001120;28;20066;-73
2023/12/06 11:02:05;;;;;;;1.27;0.45;;;;;;;13.47;100.00;100532.88;5006986;28;20717;-73
2023/12/06 11:04:36;;;;;;;2.80;0.57;;;;;;;13.47;100.00;100517.28;5004052;28;20133;-72
2023/12/06 11:07:17;;;;;;;0.40;0.30;;;;;;;13.46;100.00;100512.97;5006206;28;20049;-73
2023/12/06 11:10:00;;;;;;;0.30;0.30;;;;;;;13.41;100.00;100513.75;4999294;28;20054;-73
2023/12/06 11:12:38;;;;;;;0.55;0.30;;;;;;;13.42;100.00;100519.81;5018796;28;20064;-72
2023/12/06 11:15:27;;;;;;;1.25;0.30;;;;;;;13.38;100.00;100502.47;5025522;28;20053;-72
2023/12/06 11:18:08;;;;;;;0.50;0.45;;;;;;;13.42;100.00;100517.22;5024517;28;20395;-72
2023/12/06 11:20:39;;;;;;;4.97;0.30;;;;;;;13.41;100.00;100502.50;5024358;28;20072;-72
2023/12/06 11:23:07;;;;;;;0.30;0.10;;;;;;;13.39;100.00;100486.88;5022934;28;20296;-73
2023/12/06 11:25:45;;;;;;;0.35;0.20;;;;;;;13.38;100.00;100492.94;5025669;28;20136;-72
2023/12/06 11:28:16;;;;;;;0.13;0.10;;;;;;;13.37;100.00;100466.91;5021704;28;20455;-72
2023/12/06 11:30:56;;;;;;;0.30;0.20;;;;;;;13.38;100.00;100447.88;5023033;28;20045;-72
2023/12/06 11:33:26;;;;;;;0.13;0.10;;;;;;;13.39;100.00;100447.88;5024054;28;20057;-72